Ridgeville, Georgia
Current Conditions -  °F | °C
As of 11:15 AM on Wednesday 26 Nov 2014 (Local Time) from KBQK Reporting Station
Broken Clouds Broken Clouds  
Wind Chill: 52°   Ceiling: 900
Heat Index: 52°   Visibility: 10mi
Dew Point: 50°   Wind: 7mph
Humidity: 94%   Direction: 260°W
Pressure: 30.11"   Gusts: NA
Location:  31.5632°N, 81.4638°W
Report Text: KBQK 261615Z AUTO 26006KT 10SM BKN009 BKN017 11/10 A3011 RMK AO1
Loading
Personal Weather Stations






























Interactive Weather Map New forecast layout! Learn more

10-Day Weather Forecast

Advertisements
Track Severe Weather on mobile